This is the latest recevied weather packets stored in our database for station/object DG8SF-13. If no packets are shown the sender has not sent any weather packets the latest 10 day(s).
| Time | Temp. | Humidity | Pressure | Rain* | Wind** | Luminosity | Snow |
|---|---|---|---|---|---|---|---|
| 1788025721 | 19.44° C | 66% | 1015.1 hPa | 0 mm | - | - | - |
| 1788025392 | 19.44° C | 66% | 1015 hPa | 0 mm | - | - | - |
| 1788025070 | 20° C | 66% | 1014.9 hPa | 0 mm | - | - | - |
| 1788024757 | 20° C | 66% | 1015 hPa | 0 mm | - | - | - |
| 1788024438 | 20.56° C | 63% | 1014.9 hPa | 0 mm | - | - | - |
| 1788024111 | 20.56° C | 63% | 1014.8 hPa | 0 mm | - | - | - |
| 1788023787 | 21.11° C | 61% | 1014.8 hPa | 0 mm | - | - | - |
| 1788023474 | 21.11° C | 60% | 1014.8 hPa | 0 mm | - | - | - |
| 1788023163 | 21.11° C | 60% | 1014.7 hPa | 0 mm | - | - | - |
| 1788022837 | 22.22° C | 59% | 1014.8 hPa | 0 mm | - | - | - |
| 1788022526 | 22.78° C | 56% | 1014.7 hPa | 0 mm | - | - | - |
| 1788022213 | 23.33° C | 53% | 1014.8 hPa | 0 mm | - | - | - |
| 1788021902 | 22.78° C | 55% | 1014.7 hPa | 0 mm | - | - | - |
| 1788021589 | 24.44° C | 51% | 1014.7 hPa | 0 mm | - | - | - |
| 1788021279 | 24.44° C | 51% | 1014.8 hPa | 0 mm | - | - | - |
| 1788020966 | 23.89° C | 52% | 1014.7 hPa | 0 mm | - | - | - |
| 1788020645 | 24.44° C | 50% | 1014.7 hPa | 0 mm | - | - | - |
| 1788020330 | 25° C | 49% | 1014.7 hPa | 0 mm | - | - | - |
| 1788020018 | 25.56° C | 46% | 1014.7 hPa | 0 mm | - | - | - |
| 1788019705 | 25.56° C | 48% | 1014.7 hPa | 0 mm | - | - | - |
| 1788019370 | 25° C | 50% | 1014.7 hPa | 0 mm | - | - | - |
| 1788019058 | 24.44° C | 52% | 1014.8 hPa | 0 mm | - | - | - |
| 1788018745 | 23.33° C | 54% | 1015 hPa | 0 mm | - | - | - |
| 1788018421 | 23.33° C | 55% | 1014.9 hPa | 0 mm | - | - | - |
| 1788018110 | 23.33° C | 55% | 1014.9 hPa | 0 mm | - | - | - |
* Rain latest hour (hover to see other rain measurements)
** Current wind speed in m/s (hover to see current wind gust speed)